sensor_id;sensor_type;location;lat;lon;timestamp;P1;P2;P0
27143;PMS1003;14672;50.250;8.312;2022-08-21T00:00:09;28.20;28.20;17.60
27143;PMS1003;14672;50.250;8.312;2022-08-21T00:02:47;23.00;21.75;14.00
27143;PMS1003;14672;50.250;8.312;2022-08-21T00:05:22;48.00;44.40;28.80
27143;PMS1003;14672;50.250;8.312;2022-08-21T00:07:50;25.60;25.20;17.60
27143;PMS1003;14672;50.250;8.312;2022-08-21T00:10:17;28.00;24.50;15.00
27143;PMS1003;14672;50.250;8.312;2022-08-21T00:12:44;24.75;23.00;11.75
27143;PMS1003;14672;50.250;8.312;2022-08-21T00:15:12;25.75;24.50;17.50
27143;PMS1003;14672;50.250;8.312;2022-08-21T00:17:43;25.80;24.40;17.20
27143;PMS1003;14672;50.250;8.312;2022-08-21T00:20:10;25.50;23.25;14.00
27143;PMS1003;14672;50.250;8.312;2022-08-21T00:22:42;22.00;21.50;13.75
27143;PMS1003;14672;50.250;8.312;2022-08-21T00:25:08;19.00;19.00;10.75
27143;PMS1003;14672;50.250;8.312;2022-08-21T00:27:35;26.00;24.25;14.25
27143;PMS1003;14672;50.250;8.312;2022-08-21T00:30:03;24.50;23.25;14.50
27143;PMS1003;14672;50.250;8.312;2022-08-21T00:32:32;29.80;29.80;18.00
27143;PMS1003;14672;50.250;8.312;2022-08-21T00:35:01;31.40;31.40;21.60
27143;PMS1003;14672;50.250;8.312;2022-08-21T00:37:27;22.50;22.50;13.00
27143;PMS1003;14672;50.250;8.312;2022-08-21T00:39:54;25.20;25.00;16.80
27143;PMS1003;14672;50.250;8.312;2022-08-21T00:42:20;23.25;23.25;13.00
27143;PMS1003;14672;50.250;8.312;2022-08-21T00:44:47;20.50;19.75;12.00
27143;PMS1003;14672;50.250;8.312;2022-08-21T00:47:16;27.80;27.20;16.40
27143;PMS1003;14672;50.250;8.312;2022-08-21T00:49:43;53.40;44.40;26.20
27143;PMS1003;14672;50.250;8.312;2022-08-21T00:52:11;28.80;27.00;17.60
27143;PMS1003;14672;50.250;8.312;2022-08-21T00:54:44;26.50;25.00;15.00
27143;PMS1003;14672;50.250;8.312;2022-08-21T00:57:17;21.00;21.00;13.00
27143;PMS1003;14672;50.250;8.312;2022-08-21T00:59:54;20.50;20.50;11.75
27143;PMS1003;14672;50.250;8.312;2022-08-21T01:02:25;23.00;22.75;12.75
27143;PMS1003;14672;50.250;8.312;2022-08-21T01:04:51;22.25;21.50;13.25
27143;PMS1003;14672;50.250;8.312;2022-08-21T01:07:18;25.25;23.75;13.75
27143;PMS1003;14672;50.250;8.312;2022-08-21T01:09:45;22.00;21.75;13.75
27143;PMS1003;14672;50.250;8.312;2022-08-21T01:12:13;21.25;21.00;13.25
27143;PMS1003;14672;50.250;8.312;2022-08-21T01:14:40;21.50;20.00;11.50
27143;PMS1003;14672;50.250;8.312;2022-08-21T01:17:11;20.00;20.00;12.00
27143;PMS1003;14672;50.250;8.312;2022-08-21T01:19:39;22.25;21.50;14.25
27143;PMS1003;14672;50.250;8.312;2022-08-21T01:22:05;26.00;25.75;15.50
27143;PMS1003;14672;50.250;8.312;2022-08-21T01:24:31;29.75;28.25;16.00
27143;PMS1003;14672;50.250;8.312;2022-08-21T01:26:59;21.00;19.25;12.50
27143;PMS1003;14672;50.250;8.312;2022-08-21T01:32:10;24.75;21.50;12.00
27143;PMS1003;14672;50.250;8.312;2022-08-21T01:34:40;24.75;21.75;12.25
27143;PMS1003;14672;50.250;8.312;2022-08-21T01:37:09;24.00;23.25;13.00
27143;PMS1003;14672;50.250;8.312;2022-08-21T01:39:37;30.60;30.20;18.40
27143;PMS1003;14672;50.250;8.312;2022-08-21T01:42:04;24.20;23.20;13.40
27143;PMS1003;14672;50.250;8.312;2022-08-21T01:44:31;31.40;26.20;16.80
27143;PMS1003;14672;50.250;8.312;2022-08-21T01:47:01;27.25;24.00;15.00
27143;PMS1003;14672;50.250;8.312;2022-08-21T01:49:30;21.50;19.75;12.50
27143;PMS1003;14672;50.250;8.312;2022-08-21T01:51:57;26.00;25.40;15.00
27143;PMS1003;14672;50.250;8.312;2022-08-21T01:54:23;25.00;25.00;17.00
27143;PMS1003;14672;50.250;8.312;2022-08-21T01:56:50;23.00;22.50;12.00
27143;PMS1003;14672;50.250;8.312;2022-08-21T01:59:19;26.60;26.60;17.40
27143;PMS1003;14672;50.250;8.312;2022-08-21T02:01:47;24.25;22.50;14.75
27143;PMS1003;14672;50.250;8.312;2022-08-21T02:04:14;28.00;27.00;14.75
27143;PMS1003;14672;50.250;8.312;2022-08-21T02:06:41;22.75;22.75;14.00
27143;PMS1003;14672;50.250;8.312;2022-08-21T02:09:08;22.25;22.25;13.00
27143;PMS1003;14672;50.250;8.312;2022-08-21T02:11:36;21.00;21.00;14.00
27143;PMS1003;14672;50.250;8.312;2022-08-21T02:14:08;23.25;22.00;14.00
27143;PMS1003;14672;50.250;8.312;2022-08-21T02:16:41;25.50;23.00;12.75
27143;PMS1003;14672;50.250;8.312;2022-08-21T02:19:08;27.00;26.80;18.20
27143;PMS1003;14672;50.250;8.312;2022-08-21T02:21:37;24.00;22.50;14.00
27143;PMS1003;14672;50.250;8.312;2022-08-21T02:24:04;21.50;20.50;13.00
27143;PMS1003;14672;50.250;8.312;2022-08-21T02:26:31;20.25;20.25;12.50
27143;PMS1003;14672;50.250;8.312;2022-08-21T02:28:58;21.50;21.50;14.00
27143;PMS1003;14672;50.250;8.312;2022-08-21T02:31:24;25.00;23.00;15.00
27143;PMS1003;14672;50.250;8.312;2022-08-21T02:33:51;24.25;24.25;15.00
27143;PMS1003;14672;50.250;8.312;2022-08-21T02:36:17;27.80;26.00;13.80
27143;PMS1003;14672;50.250;8.312;2022-08-21T02:38:43;21.50;20.25;13.00
27143;PMS1003;14672;50.250;8.312;2022-08-21T02:41:12;23.00;22.60;13.00
27143;PMS1003;14672;50.250;8.312;2022-08-21T02:43:41;26.00;25.40;13.80
27143;PMS1003;14672;50.250;8.312;2022-08-21T02:46:08;26.20;24.80;14.40
27143;PMS1003;14672;50.250;8.312;2022-08-21T02:48:37;24.00;22.80;13.80
27143;PMS1003;14672;50.250;8.312;2022-08-21T02:51:08;22.25;21.25;12.00
27143;PMS1003;14672;50.250;8.312;2022-08-21T02:53:40;25.25;24.50;14.00
27143;PMS1003;14672;50.250;8.312;2022-08-21T02:56:08;19.00;19.00;14.25
27143;PMS1003;14672;50.250;8.312;2022-08-21T02:58:40;24.75;23.50;14.00
27143;PMS1003;14672;50.250;8.312;2022-08-21T03:01:10;20.25;20.25;12.25
27143;PMS1003;14672;50.250;8.312;2022-08-21T03:03:38;23.60;22.40;12.20
27143;PMS1003;14672;50.250;8.312;2022-08-21T03:06:07;22.20;21.00;12.80
27143;PMS1003;14672;50.250;8.312;2022-08-21T03:08:35;27.25;23.75;13.50
27143;PMS1003;14672;50.250;8.312;2022-08-21T03:11:02;25.75;24.75;13.25
27143;PMS1003;14672;50.250;8.312;2022-08-21T03:13:29;25.00;23.00;12.00
27143;PMS1003;14672;50.250;8.312;2022-08-21T03:15:55;27.20;25.20;17.00
27143;PMS1003;14672;50.250;8.312;2022-08-21T03:18:22;26.00;21.50;12.00
27143;PMS1003;14672;50.250;8.312;2022-08-21T03:20:48;21.75;21.75;13.00
27143;PMS1003;14672;50.250;8.312;2022-08-21T03:23:15;25.75;25.75;15.25
27143;PMS1003;14672;50.250;8.312;2022-08-21T03:25:43;21.75;21.75;12.00
27143;PMS1003;14672;50.250;8.312;2022-08-21T03:28:13;22.80;21.20;14.00
27143;PMS1003;14672;50.250;8.312;2022-08-21T03:30:44;24.75;24.75;13.25
27143;PMS1003;14672;50.250;8.312;2022-08-21T03:33:12;24.80;23.40;14.60
27143;PMS1003;14672;50.250;8.312;2022-08-21T03:35:38;20.25;20.25;11.75
27143;PMS1003;14672;50.250;8.312;2022-08-21T03:38:06;23.75;23.75;14.00
27143;PMS1003;14672;50.250;8.312;2022-08-21T03:40:33;22.75;21.75;13.00
27143;PMS1003;14672;50.250;8.312;2022-08-21T03:42:59;22.75;22.75;14.00
27143;PMS1003;14672;50.250;8.312;2022-08-21T03:45:25;23.00;23.00;14.50
27143;PMS1003;14672;50.250;8.312;2022-08-21T03:47:56;20.50;20.50;12.00
27143;PMS1003;14672;50.250;8.312;2022-08-21T03:50:26;22.75;21.00;11.25
27143;PMS1003;14672;50.250;8.312;2022-08-21T03:52:55;27.00;23.50;16.75
27143;PMS1003;14672;50.250;8.312;2022-08-21T03:55:22;19.50;19.00;13.50
27143;PMS1003;14672;50.250;8.312;2022-08-21T03:57:49;23.75;23.75;12.25
27143;PMS1003;14672;50.250;8.312;2022-08-21T04:00:16;25.00;21.25;12.00
27143;PMS1003;14672;50.250;8.312;2022-08-21T04:02:44;26.75;23.75;14.75
27143;PMS1003;14672;50.250;8.312;2022-08-21T04:05:11;20.75;20.75;12.00
27143;PMS1003;14672;50.250;8.312;2022-08-21T04:07:52;23.00;22.00;12.75
27143;PMS1003;14672;50.250;8.312;2022-08-21T04:10:31;21.00;21.00;13.75
27143;PMS1003;14672;50.250;8.312;2022-08-21T04:13:00;26.25;26.25;16.75
27143;PMS1003;14672;50.250;8.312;2022-08-21T04:15:26;21.67;21.67;12.33
27143;PMS1003;14672;50.250;8.312;2022-08-21T04:17:53;21.00;21.00;12.75
27143;PMS1003;14672;50.250;8.312;2022-08-21T04:20:20;22.00;22.00;13.00
27143;PMS1003;14672;50.250;8.312;2022-08-21T04:22:47;23.25;21.75;15.00
27143;PMS1003;14672;50.250;8.312;2022-08-21T04:25:15;23.50;23.00;13.50
27143;PMS1003;14672;50.250;8.312;2022-08-21T04:27:43;22.50;21.75;12.50
27143;PMS1003;14672;50.250;8.312;2022-08-21T04:30:11;27.25;26.75;18.25
27143;PMS1003;14672;50.250;8.312;2022-08-21T04:32:41;20.75;20.25;11.25
27143;PMS1003;14672;50.250;8.312;2022-08-21T04:35:10;23.75;23.25;14.75
27143;PMS1003;14672;50.250;8.312;2022-08-21T04:37:37;26.50;25.75;15.00
27143;PMS1003;14672;50.250;8.312;2022-08-21T04:40:03;21.00;21.00;12.50
27143;PMS1003;14672;50.250;8.312;2022-08-21T04:42:31;24.50;22.50;13.25
27143;PMS1003;14672;50.250;8.312;2022-08-21T04:44:58;24.25;23.75;16.25
27143;PMS1003;14672;50.250;8.312;2022-08-21T04:47:24;23.50;19.25;11.50
27143;PMS1003;14672;50.250;8.312;2022-08-21T04:49:50;21.25;20.75;12.25
27143;PMS1003;14672;50.250;8.312;2022-08-21T04:52:17;21.00;21.00;12.25
27143;PMS1003;14672;50.250;8.312;2022-08-21T04:54:48;22.25;22.25;12.75
27143;PMS1003;14672;50.250;8.312;2022-08-21T04:57:17;21.25;21.25;11.25
27143;PMS1003;14672;50.250;8.312;2022-08-21T04:59:45;26.75;24.75;16.50
27143;PMS1003;14672;50.250;8.312;2022-08-21T05:02:15;20.50;20.50;12.00
27143;PMS1003;14672;50.250;8.312;2022-08-21T05:04:47;23.75;22.25;13.75
27143;PMS1003;14672;50.250;8.312;2022-08-21T05:07:22;22.75;22.75;12.75
27143;PMS1003;14672;50.250;8.312;2022-08-21T05:09:53;22.75;21.00;11.50
27143;PMS1003;14672;50.250;8.312;2022-08-21T05:12:19;28.33;25.00;13.00
27143;PMS1003;14672;50.250;8.312;2022-08-21T05:14:46;22.25;21.50;13.75
27143;PMS1003;14672;50.250;8.312;2022-08-21T05:17:13;22.50;21.75;14.00
27143;PMS1003;14672;50.250;8.312;2022-08-21T05:19:39;21.25;21.25;12.50
27143;PMS1003;14672;50.250;8.312;2022-08-21T05:22:05;24.25;23.25;11.75
27143;PMS1003;14672;50.250;8.312;2022-08-21T05:24:32;26.25;23.75;14.00
27143;PMS1003;14672;50.250;8.312;2022-08-21T05:26:58;26.75;23.25;13.50
27143;PMS1003;14672;50.250;8.312;2022-08-21T05:29:25;22.25;22.25;15.00
27143;PMS1003;14672;50.250;8.312;2022-08-21T05:31:51;24.25;24.00;13.50
27143;PMS1003;14672;50.250;8.312;2022-08-21T05:34:18;24.00;23.75;14.25
27143;PMS1003;14672;50.250;8.312;2022-08-21T05:36:48;18.50;18.50;12.75
27143;PMS1003;14672;50.250;8.312;2022-08-21T05:39:14;22.75;22.00;16.50
27143;PMS1003;14672;50.250;8.312;2022-08-21T05:41:41;27.60;24.80;16.40
27143;PMS1003;14672;50.250;8.312;2022-08-21T05:44:07;25.75;25.75;17.75
27143;PMS1003;14672;50.250;8.312;2022-08-21T05:46:33;24.50;24.00;13.75
27143;PMS1003;14672;50.250;8.312;2022-08-21T05:48:59;25.75;23.75;14.25
27143;PMS1003;14672;50.250;8.312;2022-08-21T05:51:25;23.75;23.75;14.50
27143;PMS1003;14672;50.250;8.312;2022-08-21T05:53:51;26.00;26.00;16.50
27143;PMS1003;14672;50.250;8.312;2022-08-21T05:56:17;24.50;19.50;11.75
27143;PMS1003;14672;50.250;8.312;2022-08-21T05:58:43;25.25;22.00;12.75
27143;PMS1003;14672;50.250;8.312;2022-08-21T06:01:09;24.00;24.00;13.00
27143;PMS1003;14672;50.250;8.312;2022-08-21T06:03:37;20.75;19.75;11.75
27143;PMS1003;14672;50.250;8.312;2022-08-21T06:06:05;25.50;23.75;14.50
27143;PMS1003;14672;50.250;8.312;2022-08-21T06:08:31;22.50;22.50;11.75
27143;PMS1003;14672;50.250;8.312;2022-08-21T06:10:59;23.50;23.50;13.75
27143;PMS1003;14672;50.250;8.312;2022-08-21T06:13:27;18.50;17.00;10.50
27143;PMS1003;14672;50.250;8.312;2022-08-21T06:16:04;24.25;22.25;12.00
27143;PMS1003;14672;50.250;8.312;2022-08-21T06:18:37;23.75;23.25;15.25
27143;PMS1003;14672;50.250;8.312;2022-08-21T06:21:05;32.75;27.50;17.25
27143;PMS1003;14672;50.250;8.312;2022-08-21T06:23:32;23.00;21.75;13.00
27143;PMS1003;14672;50.250;8.312;2022-08-21T06:25:59;20.50;19.00;12.25
27143;PMS1003;14672;50.250;8.312;2022-08-21T06:28:31;24.50;21.25;13.50
27143;PMS1003;14672;50.250;8.312;2022-08-21T06:30:58;25.00;24.00;14.75
27143;PMS1003;14672;50.250;8.312;2022-08-21T06:33:24;29.00;27.25;15.00
27143;PMS1003;14672;50.250;8.312;2022-08-21T06:35:51;23.50;20.75;10.50
27143;PMS1003;14672;50.250;8.312;2022-08-21T06:38:17;22.50;21.50;12.50
27143;PMS1003;14672;50.250;8.312;2022-08-21T06:40:44;24.50;22.00;13.00
27143;PMS1003;14672;50.250;8.312;2022-08-21T06:43:12;23.50;21.25;12.00
27143;PMS1003;14672;50.250;8.312;2022-08-21T06:45:41;20.25;20.25;11.75
27143;PMS1003;14672;50.250;8.312;2022-08-21T06:48:08;25.25;24.00;15.75
27143;PMS1003;14672;50.250;8.312;2022-08-21T06:50:34;18.25;18.00;8.25
27143;PMS1003;14672;50.250;8.312;2022-08-21T06:53:10;21.00;20.50;12.00
27143;PMS1003;14672;50.250;8.312;2022-08-21T06:55:40;23.00;20.25;12.75
27143;PMS1003;14672;50.250;8.312;2022-08-21T06:58:07;19.50;17.00;9.50
27143;PMS1003;14672;50.250;8.312;2022-08-21T07:00:34;21.00;19.50;9.75
27143;PMS1003;14672;50.250;8.312;2022-08-21T07:03:06;20.00;20.00;9.75
27143;PMS1003;14672;50.250;8.312;2022-08-21T07:05:32;20.50;20.50;10.00
27143;PMS1003;14672;50.250;8.312;2022-08-21T07:07:59;17.00;15.75;7.75
27143;PMS1003;14672;50.250;8.312;2022-08-21T07:10:25;21.50;20.75;10.00
27143;PMS1003;14672;50.250;8.312;2022-08-21T07:12:52;20.50;19.00;10.25
27143;PMS1003;14672;50.250;8.312;2022-08-21T07:15:20;20.75;19.25;10.50
27143;PMS1003;14672;50.250;8.312;2022-08-21T07:17:46;20.50;20.00;10.75
27143;PMS1003;14672;50.250;8.312;2022-08-21T07:20:12;25.00;23.33;12.33
27143;PMS1003;14672;50.250;8.312;2022-08-21T07:22:38;20.75;19.75;11.00
27143;PMS1003;14672;50.250;8.312;2022-08-21T07:25:06;25.50;23.50;12.75
27143;PMS1003;14672;50.250;8.312;2022-08-21T07:27:33;21.50;21.50;12.00
27143;PMS1003;14672;50.250;8.312;2022-08-21T07:29:59;18.50;18.00;11.50
27143;PMS1003;14672;50.250;8.312;2022-08-21T07:32:25;21.00;21.00;11.25
27143;PMS1003;14672;50.250;8.312;2022-08-21T07:34:51;23.00;21.25;11.00
27143;PMS1003;14672;50.250;8.312;2022-08-21T07:37:18;20.25;18.75;10.25
27143;PMS1003;14672;50.250;8.312;2022-08-21T07:39:44;17.50;17.25;9.50
27143;PMS1003;14672;50.250;8.312;2022-08-21T07:42:13;20.75;20.50;10.75
27143;PMS1003;14672;50.250;8.312;2022-08-21T07:44:40;32.00;24.75;14.00
27143;PMS1003;14672;50.250;8.312;2022-08-21T07:47:06;24.00;22.50;11.75
27143;PMS1003;14672;50.250;8.312;2022-08-21T07:49:32;19.50;19.50;11.25
27143;PMS1003;14672;50.250;8.312;2022-08-21T07:51:58;20.75;18.50;10.50
27143;PMS1003;14672;50.250;8.312;2022-08-21T07:54:25;31.00;28.25;14.75
27143;PMS1003;14672;50.250;8.312;2022-08-21T07:56:51;23.00;22.00;11.75
27143;PMS1003;14672;50.250;8.312;2022-08-21T07:59:17;23.33;21.67;11.00
27143;PMS1003;14672;50.250;8.312;2022-08-21T08:01:43;18.25;18.25;10.50
27143;PMS1003;14672;50.250;8.312;2022-08-21T08:04:09;23.00;21.00;11.25
27143;PMS1003;14672;50.250;8.312;2022-08-21T08:06:35;25.00;25.00;14.50
27143;PMS1003;14672;50.250;8.312;2022-08-21T08:09:01;23.25;23.25;13.00
27143;PMS1003;14672;50.250;8.312;2022-08-21T08:11:29;25.00;21.25;12.00
27143;PMS1003;14672;50.250;8.312;2022-08-21T08:13:56;23.75;23.25;13.00
27143;PMS1003;14672;50.250;8.312;2022-08-21T08:16:25;23.00;23.00;12.00
27143;PMS1003;14672;50.250;8.312;2022-08-21T08:18:51;29.00;27.50;12.25
27143;PMS1003;14672;50.250;8.312;2022-08-21T08:21:19;24.25;23.25;12.00
27143;PMS1003;14672;50.250;8.312;2022-08-21T08:23:46;21.25;20.75;11.75
27143;PMS1003;14672;50.250;8.312;2022-08-21T08:26:12;19.75;18.00;10.50
27143;PMS1003;14672;50.250;8.312;2022-08-21T08:28:40;25.25;24.75;13.00
27143;PMS1003;14672;50.250;8.312;2022-08-21T08:31:07;25.75;23.50;14.25
27143;PMS1003;14672;50.250;8.312;2022-08-21T08:33:33;23.00;22.00;13.75
27143;PMS1003;14672;50.250;8.312;2022-08-21T08:35:59;22.67;22.00;11.67
27143;PMS1003;14672;50.250;8.312;2022-08-21T08:38:25;25.50;24.50;15.25
27143;PMS1003;14672;50.250;8.312;2022-08-21T08:40:53;27.25;26.75;13.75
27143;PMS1003;14672;50.250;8.312;2022-08-21T08:43:51;22.75;21.50;13.00
27143;PMS1003;14672;50.250;8.312;2022-08-21T08:46:29;23.75;22.25;12.75
27143;PMS1003;14672;50.250;8.312;2022-08-21T08:49:47;24.25;24.00;12.50
27143;PMS1003;14672;50.250;8.312;2022-08-21T08:52:58;22.25;22.25;10.75
27143;PMS1003;14672;50.250;8.312;2022-08-21T08:58:04;21.50;20.00;10.50
27143;PMS1003;14672;50.250;8.312;2022-08-21T09:00:30;15.00;14.00;8.00
27143;PMS1003;14672;50.250;8.312;2022-08-21T09:02:58;17.75;17.75;8.75
27143;PMS1003;14672;50.250;8.312;2022-08-21T09:05:43;14.50;14.50;8.00
27143;PMS1003;14672;50.250;8.312;2022-08-21T09:11:33;12.75;12.00;5.25
27143;PMS1003;14672;50.250;8.312;2022-08-21T09:14:21;12.25;12.25;6.75
27143;PMS1003;14672;50.250;8.312;2022-08-21T09:26:18;14.75;13.50;9.00
27143;PMS1003;14672;50.250;8.312;2022-08-21T09:28:53;16.75;13.75;8.00
27143;PMS1003;14672;50.250;8.312;2022-08-21T09:31:33;18.50;18.00;10.25
27143;PMS1003;14672;50.250;8.312;2022-08-21T09:34:04;18.25;17.50;9.00
27143;PMS1003;14672;50.250;8.312;2022-08-21T09:39:22;23.00;20.50;11.75
27143;PMS1003;14672;50.250;8.312;2022-08-21T09:41:58;22.25;19.00;10.25
27143;PMS1003;14672;50.250;8.312;2022-08-21T09:44:28;17.50;17.50;9.50
27143;PMS1003;14672;50.250;8.312;2022-08-21T09:46:57;21.25;19.75;9.75
27143;PMS1003;14672;50.250;8.312;2022-08-21T09:49:32;18.00;17.50;9.50
27143;PMS1003;14672;50.250;8.312;2022-08-21T09:52:01;15.00;14.00;7.50
27143;PMS1003;14672;50.250;8.312;2022-08-21T09:54:41;28.25;27.50;13.25
27143;PMS1003;14672;50.250;8.312;2022-08-21T09:57:18;21.00;20.25;9.25
27143;PMS1003;14672;50.250;8.312;2022-08-21T10:00:09;13.25;13.00;6.75
27143;PMS1003;14672;50.250;8.312;2022-08-21T10:02:50;17.25;14.75;7.50
27143;PMS1003;14672;50.250;8.312;2022-08-21T10:05:24;16.50;15.25;7.75
27143;PMS1003;14672;50.250;8.312;2022-08-21T10:07:52;15.25;15.00;8.75
27143;PMS1003;14672;50.250;8.312;2022-08-21T10:10:19;13.00;13.00;8.00
27143;PMS1003;14672;50.250;8.312;2022-08-21T10:25:12;13.25;13.25;7.00
27143;PMS1003;14672;50.250;8.312;2022-08-21T10:30:49;13.50;13.25;7.25
27143;PMS1003;14672;50.250;8.312;2022-08-21T10:33:33;14.25;12.50;7.00
27143;PMS1003;14672;50.250;8.312;2022-08-21T10:36:19;13.00;13.00;7.75
27143;PMS1003;14672;50.250;8.312;2022-08-21T10:39:20;15.25;14.00;8.50
27143;PMS1003;14672;50.250;8.312;2022-08-21T10:44:49;13.75;13.75;7.75
27143;PMS1003;14672;50.250;8.312;2022-08-21T10:47:48;14.00;13.25;8.00
27143;PMS1003;14672;50.250;8.312;2022-08-21T10:50:49;16.75;15.00;8.00
27143;PMS1003;14672;50.250;8.312;2022-08-21T10:56:26;11.50;11.50;6.00
27143;PMS1003;14672;50.250;8.312;2022-08-21T11:04:47;13.00;13.00;7.00
27143;PMS1003;14672;50.250;8.312;2022-08-21T11:07:22;9.75;9.75;6.00
27143;PMS1003;14672;50.250;8.312;2022-08-21T11:09:56;15.50;14.00;8.50
27143;PMS1003;14672;50.250;8.312;2022-08-21T11:12:43;13.00;12.25;7.00
27143;PMS1003;14672;50.250;8.312;2022-08-21T11:15:27;13.50;12.75;6.00
27143;PMS1003;14672;50.250;8.312;2022-08-21T11:18:01;15.00;14.25;7.25
27143;PMS1003;14672;50.250;8.312;2022-08-21T11:23:18;11.00;11.00;6.75
27143;PMS1003;14672;50.250;8.312;2022-08-21T11:26:00;13.50;13.50;7.25
27143;PMS1003;14672;50.250;8.312;2022-08-21T11:28:48;12.50;12.50;6.50
27143;PMS1003;14672;50.250;8.312;2022-08-21T11:31:26;12.50;11.75;7.50
27143;PMS1003;14672;50.250;8.312;2022-08-21T11:39:54;13.50;12.75;6.50
27143;PMS1003;14672;50.250;8.312;2022-08-21T11:45:55;13.50;13.00;6.50
27143;PMS1003;14672;50.250;8.312;2022-08-21T11:51:31;12.25;11.75;6.50
27143;PMS1003;14672;50.250;8.312;2022-08-21T11:57:06;10.75;10.75;6.00
27143;PMS1003;14672;50.250;8.312;2022-08-21T12:03:43;11.25;10.00;5.75
27143;PMS1003;14672;50.250;8.312;2022-08-21T12:06:54;10.50;10.50;5.50
27143;PMS1003;14672;50.250;8.312;2022-08-21T12:12:00;9.25;9.25;5.00
27143;PMS1003;14672;50.250;8.312;2022-08-21T12:17:18;10.25;8.75;5.00
27143;PMS1003;14672;50.250;8.312;2022-08-21T12:19:59;9.00;8.75;4.25
27143;PMS1003;14672;50.250;8.312;2022-08-21T12:22:47;9.00;9.00;4.75
27143;PMS1003;14672;50.250;8.312;2022-08-21T12:25:42;8.75;8.00;4.00
27143;PMS1003;14672;50.250;8.312;2022-08-21T12:28:26;12.00;11.00;6.25
27143;PMS1003;14672;50.250;8.312;2022-08-21T12:30:55;10.00;10.00;5.25
27143;PMS1003;14672;50.250;8.312;2022-08-21T12:33:30;8.00;8.00;5.00
27143;PMS1003;14672;50.250;8.312;2022-08-21T12:36:06;8.00;8.00;4.50
27143;PMS1003;14672;50.250;8.312;2022-08-21T12:41:22;9.00;9.00;5.00
27143;PMS1003;14672;50.250;8.312;2022-08-21T12:44:10;10.00;10.00;6.00
27143;PMS1003;14672;50.250;8.312;2022-08-21T12:46:54;9.25;8.50;4.50
27143;PMS1003;14672;50.250;8.312;2022-08-21T12:55:15;9.75;8.75;5.00
27143;PMS1003;14672;50.250;8.312;2022-08-21T12:57:56;9.00;9.00;5.50
27143;PMS1003;14672;50.250;8.312;2022-08-21T13:00:24;9.50;8.75;5.25
27143;PMS1003;14672;50.250;8.312;2022-08-21T13:02:53;10.00;10.00;6.00
27143;PMS1003;14672;50.250;8.312;2022-08-21T13:05:29;9.00;9.00;5.00
27143;PMS1003;14672;50.250;8.312;2022-08-21T13:08:07;10.00;9.25;5.50
27143;PMS1003;14672;50.250;8.312;2022-08-21T13:10:37;12.50;12.50;6.75
27143;PMS1003;14672;50.250;8.312;2022-08-21T13:13:08;9.50;9.50;6.50
27143;PMS1003;14672;50.250;8.312;2022-08-21T13:15:42;13.00;12.25;7.50
27143;PMS1003;14672;50.250;8.312;2022-08-21T13:18:08;13.25;13.25;10.00
27143;PMS1003;14672;50.250;8.312;2022-08-21T13:21:13;11.25;11.25;7.00
27143;PMS1003;14672;50.250;8.312;2022-08-21T13:23:40;9.50;9.00;5.25
27143;PMS1003;14672;50.250;8.312;2022-08-21T13:26:16;12.75;12.75;9.50
27143;PMS1003;14672;50.250;8.312;2022-08-21T13:28:47;10.25;10.00;6.25
27143;PMS1003;14672;50.250;8.312;2022-08-21T13:31:20;11.50;11.00;7.50
27143;PMS1003;14672;50.250;8.312;2022-08-21T13:33:53;13.50;13.50;9.00
27143;PMS1003;14672;50.250;8.312;2022-08-21T13:36:24;13.00;12.50;8.25
27143;PMS1003;14672;50.250;8.312;2022-08-21T13:38:56;11.00;11.00;6.75
27143;PMS1003;14672;50.250;8.312;2022-08-21T13:41:30;13.50;12.75;8.00
27143;PMS1003;14672;50.250;8.312;2022-08-21T13:44:01;11.00;11.00;7.50
27143;PMS1003;14672;50.250;8.312;2022-08-21T13:46:39;13.75;13.25;9.25
27143;PMS1003;14672;50.250;8.312;2022-08-21T13:49:06;11.50;11.00;8.00
27143;PMS1003;14672;50.250;8.312;2022-08-21T13:51:35;9.25;9.25;6.25
27143;PMS1003;14672;50.250;8.312;2022-08-21T13:54:02;11.50;11.50;7.00
27143;PMS1003;14672;50.250;8.312;2022-08-21T13:56:49;11.50;11.50;7.50
27143;PMS1003;14672;50.250;8.312;2022-08-21T13:59:26;11.00;10.25;7.50
27143;PMS1003;14672;50.250;8.312;2022-08-21T14:02:16;12.50;12.00;6.75
27143;PMS1003;14672;50.250;8.312;2022-08-21T14:04:51;11.00;11.00;7.25
27143;PMS1003;14672;50.250;8.312;2022-08-21T14:07:25;12.25;12.00;7.75
27143;PMS1003;14672;50.250;8.312;2022-08-21T14:10:06;10.00;9.75;6.00
27143;PMS1003;14672;50.250;8.312;2022-08-21T14:12:49;10.75;10.25;6.25
27143;PMS1003;14672;50.250;8.312;2022-08-21T14:15:25;9.00;9.00;6.25
27143;PMS1003;14672;50.250;8.312;2022-08-21T14:18:17;11.25;11.25;5.00
27143;PMS1003;14672;50.250;8.312;2022-08-21T14:20:49;10.75;10.25;6.00
27143;PMS1003;14672;50.250;8.312;2022-08-21T14:23:23;12.00;12.00;6.75
27143;PMS1003;14672;50.250;8.312;2022-08-21T14:25:51;9.75;9.00;5.25
27143;PMS1003;14672;50.250;8.312;2022-08-21T14:28:19;9.50;9.50;6.00
27143;PMS1003;14672;50.250;8.312;2022-08-21T14:30:55;9.00;9.00;4.75
27143;PMS1003;14672;50.250;8.312;2022-08-21T14:33:31;10.00;10.00;6.75
27143;PMS1003;14672;50.250;8.312;2022-08-21T14:35:58;9.25;9.25;6.25
27143;PMS1003;14672;50.250;8.312;2022-08-21T14:38:27;10.50;10.50;5.75
27143;PMS1003;14672;50.250;8.312;2022-08-21T14:40:56;9.50;9.00;5.25
27143;PMS1003;14672;50.250;8.312;2022-08-21T14:43:47;10.00;9.75;5.75
27143;PMS1003;14672;50.250;8.312;2022-08-21T14:46:23;8.50;8.00;4.50
27143;PMS1003;14672;50.250;8.312;2022-08-21T14:48:52;8.00;8.00;4.00
27143;PMS1003;14672;50.250;8.312;2022-08-21T14:51:18;7.25;7.25;4.00
27143;PMS1003;14672;50.250;8.312;2022-08-21T14:53:45;8.00;8.00;4.75
27143;PMS1003;14672;50.250;8.312;2022-08-21T14:56:12;7.75;7.75;3.75
27143;PMS1003;14672;50.250;8.312;2022-08-21T14:58:41;7.25;7.25;4.00
27143;PMS1003;14672;50.250;8.312;2022-08-21T15:01:21;8.25;8.25;3.50
27143;PMS1003;14672;50.250;8.312;2022-08-21T15:03:48;9.00;8.50;4.50
27143;PMS1003;14672;50.250;8.312;2022-08-21T15:06:15;8.75;8.75;5.25
27143;PMS1003;14672;50.250;8.312;2022-08-21T15:08:42;9.25;8.00;5.00
27143;PMS1003;14672;50.250;8.312;2022-08-21T15:11:11;6.50;6.50;3.25
27143;PMS1003;14672;50.250;8.312;2022-08-21T15:13:45;6.50;6.50;3.00
27143;PMS1003;14672;50.250;8.312;2022-08-21T15:16:13;7.75;7.75;4.00
27143;PMS1003;14672;50.250;8.312;2022-08-21T15:18:40;8.00;8.00;4.00
27143;PMS1003;14672;50.250;8.312;2022-08-21T15:21:07;7.75;7.75;4.25
27143;PMS1003;14672;50.250;8.312;2022-08-21T15:23:33;7.50;7.50;3.50
27143;PMS1003;14672;50.250;8.312;2022-08-21T15:26:00;7.75;7.75;4.75
27143;PMS1003;14672;50.250;8.312;2022-08-21T15:28:26;6.00;6.00;2.25
27143;PMS1003;14672;50.250;8.312;2022-08-21T15:30:53;8.75;8.75;5.25
27143;PMS1003;14672;50.250;8.312;2022-08-21T15:33:20;7.50;7.25;3.75
27143;PMS1003;14672;50.250;8.312;2022-08-21T15:35:50;7.00;6.75;3.00
27143;PMS1003;14672;50.250;8.312;2022-08-21T15:38:16;8.25;8.00;3.50